Terminal Aerodrome Forecast
Issued by NWS Tuscon, AZ

Home | Current Version | Previous Version | Text Only | Print | Product List | Glossary On
Versions: 1 2 3 4 5 6 7 8 9 10 11 12 13 14 15 16
000
FTUS45 KTWC 311100
TAFTUS
TAF
KTUS 311128Z 3112/0112 17009KT P6SM VCSH FEW070 BKN120 OVC200
     FM311500 20006KT P6SM FEW070 SCT120 BKN200
     FM312200 30009KT P6SM VCSH FEW080 SCT120 BKN200
     FM010300 24007KT P6SM SCT120 BKN200
     FM010900 15006KT P6SM FEW140 SCT200=

USA.gov is the U.S. government's official web portal to all federal, state and local government web resources and services.